Date,TemperatureHighF,TemperatureAvgF,TemperatureLowF,DewpointHighF,DewpointAvgF,DewpointLowF,HumidityHigh,HumidityAvg,HumidityLow,PressureMaxIn,PressureMinIn,WindSpeedMaxMPH,WindSpeedAvgMPH,GustSpeedMaxMPH,PrecipitationSumIn
2013-1-1,20.1,7.4,-4.2,17.1,3.1,-7.6,88,83,69,30.58,30.27,8,2,14,0.00
2013-1-2,21.4,17.1,14.2,19.4,14.5,12.0,92,90,86,30.29,30.18,10,2,13,0.00
2013-1-3,21.9,16.1,12.0,19.8,11.6,6.8,91,82,66,30.49,30.28,11,3,13,0.00
2013-1-4,34.2,23.3,15.4,21.0,16.8,12.6,88,77,58,30.34,30.23,10,2,14,0.00
2013-1-5,27.3,19.2,11.8,17.8,14.3,9.1,91,82,66,30.31,30.03,8,2,12,0.00
2013-1-6,26.8,18.6,12.9,17.2,12.5,8.1,90,78,58,30.44,30.21,12,2,13,0.00
2013-1-7,38.8,29.4,15.3,27.7,23.3,11.8,89,78,63,30.25,30.04,13,3,19,0.00
2013-1-8,34.3,28.2,19.2,30.4,24.6,17.6,94,86,76,30.17,29.91,11,3,17,0.00
2013-1-9,36.3,31.7,25.5,28.4,24.2,21.4,88,74,58,30.53,30.06,22,4,24,0.00
2013-1-10,39.6,32.8,25.5,33.3,26.5,21.6,96,78,51,30.51,29.88,12,4,16,0.28
2013-1-11,41.0,37.0,34.3,40.5,36.3,33.3,98,97,96,29.88,29.46,10,3,14,0.02
2013-1-12,39.7,17.2,5.7,39.2,11.5,0.3,98,78,65,30.31,29.48,22,5,30,0.02
2013-1-13,9.3,6.2,3.2,3.9,1.3,-1.1,89,80,75,30.52,30.30,11,2,13,0.00
2013-1-14,15.3,9.4,3.9,6.4,3.9,1.0,88,78,62,30.69,30.52,10,2,16,0.00
2013-1-15,30.4,20.2,9.0,19.4,13.4,5.9,91,76,56,30.56,30.01,13,3,18,0.00
2013-1-16,36.7,26.8,14.0,32.7,18.8,-1.3,100,72,48,30.45,29.82,16,4,20,0.02
2013-1-17,20.1,14.0,8.1,11.5,4.2,-3.1,79,65,49,30.64,30.45,9,2,13,0.00
2013-1-18,42.1,29.7,17.2,31.8,24.0,11.5,90,80,64,30.54,29.86,14,3,19,0.01
2013-1-19,39.0,23.9,3.4,32.0,18.3,-3.3,95,79,57,30.45,29.81,32,4,38,0.00
2013-1-20,9.7,3.7,-1.1,1.2,-4.0,-9.0,82,70,56,30.68,30.45,16,3,21,0.00
2013-1-21,-1.1,-5.3,-9.6,-9.0,-13.2,-17.9,75,68,60,30.68,30.58,14,3,18,0.00
2013-1-22,5.4,-2.6,-11.0,-2.0,-10.5,-17.0,85,68,58,30.76,30.55,9,2,10,0.00
2013-1-23,16.9,7.2,-4.5,9.9,-1.1,-14.3,92,69,53,30.94,30.42,23,3,27,0.00
2013-1-24,12.2,2.1,-6.2,3.7,-6.7,-15.0,69,66,62,31.02,30.45,14,3,16,0.00
2013-1-25,19.8,14.1,5.5,12.6,6.4,-0.9,85,71,60,30.58,30.17,16,4,23,0.00
2013-1-26,23.9,13.2,1.0,14.0,5.5,-2.7,86,72,59,30.63,30.34,10,3,13,0.00
2013-1-27,32.5,29.2,23.4,30.4,23.7,13.8,96,81,64,30.35,29.96,11,3,14,0.24
2013-1-28,33.8,32.0,30.7,32.7,31.0,29.7,97,96,95,30.06,29.77,8,1,11,0.20
2013-1-29,35.4,32.4,28.0,33.1,30.2,23.5,98,92,83,29.89,29.64,12,2,14,0.02
2013-1-30,28.0,18.1,9.9,23.5,12.7,3.9,85,79,73,29.97,29.80,15,4,20,0.00
2013-1-31,9.5,2.6,-6.2,3.7,-3.7,-13.2,80,74,69,30.58,29.97,14,4,26,0.00